Time,TemperatureF,DewpointF,PressureIn,WindDirection,WindDirectionDegrees,WindSpeedMPH,WindSpeedGustMPH,Humidity,HourlyPrecipIn,Conditions,Clouds,dailyrainin,SoftwareType,DateUTC
2013-06-07 00:05:00,54.6,45.8,29.98,ENE,74,0.0,14.0,72,0.00,,,0.00,Wunderground v.1.15,2013-06-07 04:05:00,
2013-06-07 00:10:00,54.5,46.0,29.98,ENE,74,0.0,14.0,73,0.00,,,0.00,Wunderground v.1.15,2013-06-07 04:10:00,
2013-06-07 00:15:00,54.4,46.3,29.99,ENE,74,0.0,14.0,74,0.00,,,0.00,Wunderground v.1.15,2013-06-07 04:15:00,
2013-06-07 00:20:00,54.3,46.2,29.99,ENE,74,0.0,14.0,74,0.00,,,0.00,Wunderground v.1.15,2013-06-07 04:20:00,
2013-06-07 00:25:00,54.2,45.7,29.99,ENE,74,0.0,14.0,73,0.00,,,0.00,Wunderground v.1.15,2013-06-07 04:25:00,
2013-06-07 00:30:00,54.2,46.1,29.99,ENE,74,0.0,14.0,74,0.00,,,0.00,Wunderground v.1.15,2013-06-07 04:30:00,
2013-06-07 00:40:00,54.2,46.4,29.99,ENE,74,0.0,14.0,75,0.00,,,0.00,Wunderground v.1.15,2013-06-07 04:40:00,
2013-06-07 00:45:00,54.3,46.5,29.99,ENE,74,0.0,14.0,75,0.00,,,0.00,Wunderground v.1.15,2013-06-07 04:45:00,
2013-06-07 00:50:00,54.3,46.5,29.99,ENE,74,0.0,14.0,75,0.00,,,0.00,Wunderground v.1.15,2013-06-07 04:50:00,
2013-06-07 00:55:00,54.3,45.8,29.99,ENE,74,0.0,14.0,73,0.00,,,0.00,Wunderground v.1.15,2013-06-07 04:55:00,
2013-06-07 01:00:00,54.4,46.3,29.99,ENE,74,0.0,14.0,74,0.00,,,0.00,Wunderground v.1.15,2013-06-07 05:00:00,
2013-06-07 01:10:00,54.4,46.3,29.99,ENE,74,0.0,14.0,74,0.00,,,0.00,Wunderground v.1.15,2013-06-07 05:10:00,
2013-06-07 01:15:00,54.4,45.9,29.99,ENE,74,0.0,14.0,73,0.00,,,0.00,Wunderground v.1.15,2013-06-07 05:15:00,
2013-06-07 01:20:00,54.4,45.6,29.99,ENE,74,0.0,14.0,72,0.00,,,0.00,Wunderground v.1.15,2013-06-07 05:20:00,
2013-06-07 01:25:00,54.3,46.5,29.99,ENE,74,0.0,14.0,75,0.00,,,0.00,Wunderground v.1.15,2013-06-07 05:25:00,
2013-06-07 01:30:00,54.1,46.0,29.99,ENE,74,0.0,14.0,74,0.00,,,0.00,Wunderground v.1.15,2013-06-07 05:30:00,
2013-06-07 01:35:00,53.9,45.8,29.99,ENE,74,0.0,14.0,74,0.00,,,0.00,Wunderground v.1.15,2013-06-07 05:35:00,
2013-06-07 01:45:00,53.6,45.9,29.99,ENE,74,0.0,14.0,75,0.00,,,0.00,Wunderground v.1.15,2013-06-07 05:45:00,
2013-06-07 01:50:00,53.5,46.1,29.99,ENE,74,0.0,14.0,76,0.00,,,0.00,Wunderground v.1.15,2013-06-07 05:50:00,
2013-06-07 01:55:00,53.3,45.6,29.99,ENE,74,0.0,14.0,75,0.00,,,0.00,Wunderground v.1.15,2013-06-07 05:55:00,
2013-06-07 02:00:00,53.2,45.5,30.00,ENE,74,0.0,14.0,75,0.00,,,0.00,Wunderground v.1.15,2013-06-07 06:00:00,
2013-06-07 02:05:00,53.0,45.3,30.00,ENE,74,0.0,14.0,75,0.00,,,0.00,Wunderground v.1.15,2013-06-07 06:05:00,
2013-06-07 02:15:00,52.7,45.3,30.00,ENE,74,0.0,14.0,76,0.00,,,0.00,Wunderground v.1.15,2013-06-07 06:15:00,
2013-06-07 02:20:00,52.5,45.2,30.00,ENE,74,0.0,14.0,76,0.00,,,0.00,Wunderground v.1.15,2013-06-07 06:20:00,
2013-06-07 02:25:00,52.3,45.3,30.00,ENE,74,0.0,14.0,77,0.00,,,0.00,Wunderground v.1.15,2013-06-07 06:25:00,
2013-06-07 02:30:00,52.1,45.1,30.00,ENE,74,0.0,14.0,77,0.00,,,0.00,Wunderground v.1.15,2013-06-07 06:30:00,
2013-06-07 02:35:00,51.9,45.3,30.00,ENE,74,0.0,14.0,78,0.00,,,0.00,Wunderground v.1.15,2013-06-07 06:35:00,
2013-06-07 02:40:00,51.7,45.4,30.00,ENE,74,0.0,14.0,79,0.00,,,0.00,Wunderground v.1.15,2013-06-07 06:40:00,
2013-06-07 02:50:00,51.3,45.0,30.00,ENE,74,0.0,14.0,79,0.00,,,0.00,Wunderground v.1.15,2013-06-07 06:50:00,
2013-06-07 02:55:00,51.1,45.1,30.00,ENE,74,0.0,14.0,80,0.00,,,0.00,Wunderground v.1.15,2013-06-07 06:55:00,
2013-06-07 03:00:00,50.9,44.9,30.00,ENE,74,0.0,14.0,80,0.00,,,0.00,Wunderground v.1.15,2013-06-07 07:00:00,
2013-06-07 03:05:00,50.7,45.1,30.00,ENE,74,0.0,14.0,81,0.00,,,0.00,Wunderground v.1.15,2013-06-07 07:05:00,
2013-06-07 03:10:00,50.5,44.9,30.00,ENE,74,0.0,14.0,81,0.00,,,0.00,Wunderground v.1.15,2013-06-07 07:10:00,
2013-06-07 03:20:00,50.3,45.0,30.00,ENE,74,0.0,14.0,82,0.00,,,0.00,Wunderground v.1.15,2013-06-07 07:20:00,
2013-06-07 03:25:00,50.2,44.9,30.00,ENE,74,0.0,14.0,82,0.00,,,0.00,Wunderground v.1.15,2013-06-07 07:25:00,
2013-06-07 03:30:00,50.1,44.8,30.00,ENE,74,0.0,14.0,82,0.00,,,0.00,Wunderground v.1.15,2013-06-07 07:30:00,
2013-06-07 03:35:00,50.0,45.0,30.00,ENE,74,0.0,14.0,83,0.00,,,0.00,Wunderground v.1.15,2013-06-07 07:35:00,
2013-06-07 03:45:00,50.0,45.0,30.00,ENE,74,0.0,14.0,83,0.00,,,0.00,Wunderground v.1.15,2013-06-07 07:45:00,
2013-06-07 03:50:00,49.9,44.9,30.00,ENE,74,0.0,14.0,83,0.00,,,0.00,Wunderground v.1.15,2013-06-07 07:50:00,
2013-06-07 03:55:00,50.1,45.1,29.99,ENE,74,0.0,14.0,83,0.00,,,0.00,Wunderground v.1.15,2013-06-07 07:55:00,
2013-06-07 04:05:00,50.1,44.8,29.99,ENE,74,0.0,14.0,82,0.00,,,0.00,Wunderground v.1.15,2013-06-07 08:05:00,
2013-06-07 04:10:00,50.0,44.7,29.99,ENE,74,0.0,14.0,82,0.00,,,0.00,Wunderground v.1.15,2013-06-07 08:10:00,
2013-06-07 04:15:00,50.0,44.7,29.99,ENE,74,0.0,14.0,82,0.00,,,0.00,Wunderground v.1.15,2013-06-07 08:15:00,
2013-06-07 04:25:00,50.0,45.0,29.99,ENE,74,0.0,14.0,83,0.00,,,0.00,Wunderground v.1.15,2013-06-07 08:25:00,
2013-06-07 04:30:00,49.9,44.9,29.99,ENE,74,0.0,14.0,83,0.00,,,0.00,Wunderground v.1.15,2013-06-07 08:30:00,
2013-06-07 04:35:00,49.7,44.7,29.99,ENE,74,0.0,14.0,83,0.00,,,0.00,Wunderground v.1.15,2013-06-07 08:35:00,
2013-06-07 04:40:00,49.6,44.6,29.99,ENE,74,0.0,14.0,83,0.00,,,0.00,Wunderground v.1.15,2013-06-07 08:40:00,
2013-06-07 04:45:00,49.4,44.8,29.99,ENE,74,0.0,14.0,84,0.00,,,0.00,Wunderground v.1.15,2013-06-07 08:45:00,
2013-06-07 04:50:00,48.9,44.6,29.99,ENE,74,0.0,14.0,85,0.00,,,0.00,Wunderground v.1.15,2013-06-07 08:50:00,
2013-06-07 05:05:00,48.6,44.9,29.99,ENE,74,0.0,14.0,87,0.00,,,0.00,Wunderground v.1.15,2013-06-07 09:05:00,
2013-06-07 05:10:00,48.7,45.0,29.99,ENE,74,0.0,14.0,87,0.00,,,0.00,Wunderground v.1.15,2013-06-07 09:10:00,
2013-06-07 05:20:00,48.8,44.8,29.99,ENE,74,0.0,14.0,86,0.00,,,0.00,Wunderground v.1.15,2013-06-07 09:20:00,
2013-06-07 05:25:00,48.8,44.8,29.98,ENE,74,0.0,14.0,86,0.00,,,0.00,Wunderground v.1.15,2013-06-07 09:25:00,
2013-06-07 05:30:00,48.7,44.7,29.98,ENE,74,0.0,14.0,86,0.00,,,0.00,Wunderground v.1.15,2013-06-07 09:30:00,
2013-06-07 05:35:00,48.6,44.6,29.98,ENE,74,0.0,14.0,86,0.00,,,0.00,Wunderground v.1.15,2013-06-07 09:35:00,
2013-06-07 05:40:00,48.4,44.4,29.98,ENE,74,0.0,14.0,86,0.00,,,0.00,Wunderground v.1.15,2013-06-07 09:40:00,
2013-06-07 05:45:00,48.2,44.5,29.98,ENE,74,0.0,14.0,87,0.00,,,0.00,Wunderground v.1.15,2013-06-07 09:45:00,
2013-06-07 05:55:00,47.8,44.4,29.98,ENE,74,0.0,14.0,88,0.00,,,0.00,Wunderground v.1.15,2013-06-07 09:55:00,
2013-06-07 06:00:00,47.7,44.3,29.98,ENE,74,0.0,14.0,88,0.00,,,0.00,Wunderground v.1.15,2013-06-07 10:00:00,
2013-06-07 06:05:00,47.5,45.3,29.98,ENE,74,0.0,14.0,92,0.00,,,0.00,Wunderground v.1.15,2013-06-07 10:05:00,
2013-06-07 06:10:00,47.3,43.9,29.98,ENE,74,0.0,14.0,88,0.00,,,0.00,Wunderground v.1.15,2013-06-07 10:10:00,
2013-06-07 06:15:00,47.2,43.8,29.99,ENE,74,0.0,14.0,88,0.00,,,0.00,Wunderground v.1.15,2013-06-07 10:15:00,
2013-06-07 06:25:00,47.2,44.1,29.98,ENE,74,0.0,14.0,89,0.00,,,0.00,Wunderground v.1.15,2013-06-07 10:25:00,
2013-06-07 06:30:00,47.1,44.0,29.98,ENE,74,0.0,14.0,89,0.00,,,0.00,Wunderground v.1.15,2013-06-07 10:30:00,
2013-06-07 06:35:00,47.2,44.1,29.98,ENE,74,0.0,14.0,89,0.00,,,0.00,Wunderground v.1.15,2013-06-07 10:35:00,
2013-06-07 06:40:00,47.2,44.1,29.99,ENE,74,0.0,14.0,89,0.00,,,0.00,Wunderground v.1.15,2013-06-07 10:40:00,
2013-06-07 06:45:00,47.2,44.1,29.99,ENE,74,0.0,14.0,89,0.00,,,0.00,Wunderground v.1.15,2013-06-07 10:45:00,
2013-06-07 06:50:00,47.2,44.1,29.99,ENE,74,0.0,14.0,89,0.00,,,0.00,Wunderground v.1.15,2013-06-07 10:50:00,
2013-06-07 07:00:00,47.3,44.2,29.99,ENE,74,0.0,14.0,89,0.00,,,0.00,Wunderground v.1.15,2013-06-07 11:00:00,
2013-06-07 07:05:00,47.4,44.3,29.99,ENE,74,0.0,14.0,89,0.00,,,0.00,Wunderground v.1.15,2013-06-07 11:05:00,
2013-06-07 07:10:00,47.8,44.7,29.99,ENE,74,0.0,14.0,89,0.00,,,0.00,Wunderground v.1.15,2013-06-07 11:10:00,
2013-06-07 07:15:00,48.0,44.9,29.99,ENE,74,0.0,14.0,89,0.00,,,0.00,Wunderground v.1.15,2013-06-07 11:15:00,
2013-06-07 07:20:00,48.1,45.0,29.99,ENE,74,0.0,14.0,89,0.00,,,0.00,Wunderground v.1.15,2013-06-07 11:20:00,
2013-06-07 07:30:00,48.3,45.2,29.99,ENE,74,0.0,14.0,89,0.00,,,0.00,Wunderground v.1.15,2013-06-07 11:30:00,
2013-06-07 07:35:00,48.4,45.3,30.00,ENE,74,0.0,14.0,89,0.00,,,0.00,Wunderground v.1.15,2013-06-07 11:35:00,
2013-06-07 07:40:00,48.6,45.5,29.99,ENE,74,0.0,14.0,89,0.00,,,0.00,Wunderground v.1.15,2013-06-07 11:40:00,
2013-06-07 07:45:00,48.9,45.8,29.99,ENE,74,0.0,14.0,89,0.00,,,0.00,Wunderground v.1.15,2013-06-07 11:45:00,
2013-06-07 07:50:00,49.0,45.9,29.99,ENE,74,0.0,14.0,89,0.00,,,0.00,Wunderground v.1.15,2013-06-07 11:50:00,
2013-06-07 07:55:00,48.6,44.9,29.99,ENE,74,0.0,14.0,87,0.00,,,0.00,Wunderground v.1.15,2013-06-07 11:55:00,
2013-06-07 08:00:00,48.2,44.8,29.99,ENE,74,0.0,14.0,88,0.00,,,0.00,Wunderground v.1.15,2013-06-07 12:00:00,
2013-06-07 08:05:00,47.9,44.5,30.00,ENE,74,0.0,14.0,88,0.00,,,0.00,Wunderground v.1.15,2013-06-07 12:05:00,
2013-06-07 08:10:00,47.8,44.7,30.00,East,79,0.0,14.0,89,0.00,,,0.00,Wunderground v.1.15,2013-06-07 12:10:00,
2013-06-07 08:15:00,47.8,44.7,30.00,East,79,0.0,14.0,89,0.00,,,0.00,Wunderground v.1.15,2013-06-07 12:15:00,
2013-06-07 08:20:00,47.6,44.8,30.00,East,79,0.0,14.0,90,0.00,,,0.00,Wunderground v.1.15,2013-06-07 12:20:00,
2013-06-07 08:30:00,47.3,44.8,30.00,East,79,0.0,14.0,91,0.00,,,0.00,Wunderground v.1.15,2013-06-07 12:30:00,
2013-06-07 08:35:00,47.4,44.9,30.00,East,79,0.0,14.0,91,0.00,,,0.00,Wunderground v.1.15,2013-06-07 12:35:00,
2013-06-07 08:40:00,47.5,45.0,30.00,East,79,0.0,14.0,91,0.00,,,0.00,Wunderground v.1.15,2013-06-07 12:40:00,
2013-06-07 08:50:00,48.0,45.2,30.00,East,79,0.0,14.0,90,0.00,,,0.00,Wunderground v.1.15,2013-06-07 12:50:00,
2013-06-07 08:55:00,48.2,45.4,30.00,East,79,0.0,14.0,90,0.00,,,0.00,Wunderground v.1.15,2013-06-07 12:55:00,
2013-06-07 09:05:00,48.5,45.4,30.00,SSW,199,0.0,14.0,89,0.00,,,0.00,Wunderground v.1.15,2013-06-07 13:05:00,
2013-06-07 09:10:00,48.6,45.5,30.00,SSW,202,0.0,14.0,89,0.00,,,0.00,Wunderground v.1.15,2013-06-07 13:10:00,
2013-06-07 09:15:00,48.6,45.5,30.00,SSW,206,1.0,14.0,89,0.00,,,0.00,Wunderground v.1.15,2013-06-07 13:15:00,
2013-06-07 09:25:00,48.4,45.3,30.00,SSW,206,0.0,14.0,89,0.00,,,0.00,Wunderground v.1.15,2013-06-07 13:25:00,
2013-06-07 09:30:00,48.5,45.7,30.00,SSW,206,0.0,14.0,90,0.00,,,0.00,Wunderground v.1.15,2013-06-07 13:30:00,
2013-06-07 09:40:00,48.8,46.0,30.00,SSW,206,0.0,14.0,90,0.00,,,0.00,Wunderground v.1.15,2013-06-07 13:40:00,
2013-06-07 09:45:00,48.8,46.0,30.00,SSW,206,0.0,14.0,90,0.00,,,0.00,Wunderground v.1.15,2013-06-07 13:45:00,
2013-06-07 09:50:00,48.7,45.6,30.00,SSW,208,0.0,14.0,89,0.00,,,0.00,Wunderground v.1.15,2013-06-07 13:50:00,
2013-06-07 09:55:00,48.7,45.9,30.00,SSW,208,0.0,14.0,90,0.00,,,0.00,Wunderground v.1.15,2013-06-07 13:55:00,
2013-06-07 10:00:00,48.7,45.6,30.00,SW,236,1.0,14.0,89,0.00,,,0.00,Wunderground v.1.15,2013-06-07 14:00:00,
2013-06-07 10:05:00,48.7,45.6,30.00,SW,236,1.0,14.0,89,0.00,,,0.00,Wunderground v.1.15,2013-06-07 14:05:00,
2013-06-07 10:15:00,48.5,45.4,30.01,WSW,240,1.0,14.0,89,0.00,,,0.00,Wunderground v.1.15,2013-06-07 14:15:00,
2013-06-07 10:20:00,48.6,45.5,30.01,WSW,240,1.0,1.0,89,0.00,,,0.00,Wunderground v.1.15,2013-06-07 14:20:00,
2013-06-07 10:30:00,49.1,46.3,30.01,WSW,240,1.0,14.0,90,0.00,,,0.00,Wunderground v.1.15,2013-06-07 14:30:00,
2013-06-07 10:35:00,49.0,45.9,30.00,WSW,240,1.0,14.0,89,0.00,,,0.00,Wunderground v.1.15,2013-06-07 14:35:00,
2013-06-07 10:45:00,48.8,45.7,30.00,WSW,240,0.0,14.0,89,0.00,,,0.00,Wunderground v.1.15,2013-06-07 14:45:00,
2013-06-07 10:50:00,48.8,45.7,30.00,WSW,240,0.0,14.0,89,0.00,,,0.00,Wunderground v.1.15,2013-06-07 14:50:00,
2013-06-07 10:55:00,48.8,45.4,30.00,WSW,240,0.0,14.0,88,0.00,,,0.00,Wunderground v.1.15,2013-06-07 14:55:00,
2013-06-07 11:00:00,49.0,45.9,30.00,WSW,240,0.0,14.0,89,0.00,,,0.00,Wunderground v.1.15,2013-06-07 15:00:00,
2013-06-07 11:05:00,48.9,45.5,30.00,West,259,0.0,14.0,88,0.00,,,0.00,Wunderground v.1.15,2013-06-07 15:05:00,
2013-06-07 11:10:00,49.1,46.0,30.00,WSW,257,1.0,14.0,89,0.00,,,0.00,Wunderground v.1.15,2013-06-07 15:10:00,
2013-06-07 11:20:00,49.6,46.5,30.00,WSW,252,2.0,14.0,89,0.00,,,0.00,Wunderground v.1.15,2013-06-07 15:20:00,
2013-06-07 11:30:00,49.9,46.8,30.00,WSW,252,1.0,14.0,89,0.00,,,0.00,Wunderground v.1.15,2013-06-07 15:30:00,
2013-06-07 11:35:00,49.8,46.4,30.01,WSW,252,1.0,14.0,88,0.00,,,0.00,Wunderground v.1.15,2013-06-07 15:35:00,
2013-06-07 11:40:00,49.8,46.4,30.01,WSW,252,1.0,1.0,88,0.00,,,0.00,Wunderground v.1.15,2013-06-07 15:40:00,
2013-06-07 11:45:00,50.0,46.6,30.00,West,269,1.0,14.0,88,0.00,,,0.00,Wunderground v.1.15,2013-06-07 15:45:00,
2013-06-07 11:50:00,50.1,46.7,30.00,West,269,1.0,14.0,88,0.00,,,0.00,Wunderground v.1.15,2013-06-07 15:50:00,
2013-06-07 11:55:00,50.1,46.7,30.00,West,268,1.0,14.0,88,0.00,,,0.00,Wunderground v.1.15,2013-06-07 15:55:00,
2013-06-07 12:00:00,50.0,46.6,30.00,West,269,1.0,14.0,88,0.00,,,0.00,Wunderground v.1.15,2013-06-07 16:00:00,
2013-06-07 12:10:00,50.5,46.8,30.00,WSW,250,1.0,14.0,87,0.00,,,0.00,Wunderground v.1.15,2013-06-07 16:10:00,
2013-06-07 12:15:00,51.1,47.4,30.00,WSW,250,2.0,14.0,87,0.00,,,0.00,Wunderground v.1.15,2013-06-07 16:15:00,
2013-06-07 12:20:00,51.4,47.0,30.00,WSW,250,2.0,2.0,85,0.00,,,0.00,Wunderground v.1.15,2013-06-07 16:20:00,
2013-06-07 12:25:00,51.0,46.3,30.00,WSW,250,2.0,14.0,84,0.00,,,0.00,Wunderground v.1.15,2013-06-07 16:25:00,
2013-06-07 12:30:00,51.0,47.6,30.00,WSW,249,1.0,14.0,88,0.00,,,0.00,Wunderground v.1.15,2013-06-07 16:30:00,
2013-06-07 12:40:00,50.2,46.8,29.99,WSW,256,1.0,1.0,88,0.00,,,0.00,Wunderground v.1.15,2013-06-07 16:40:00,
2013-06-07 12:45:00,50.4,46.7,29.99,WSW,256,1.0,14.0,87,0.00,,,0.00,Wunderground v.1.15,2013-06-07 16:45:00,
2013-06-07 12:50:00,50.3,46.9,29.99,WSW,252,2.0,14.0,88,0.00,,,0.00,Wunderground v.1.15,2013-06-07 16:50:00,
2013-06-07 12:55:00,50.9,47.5,29.99,WSW,252,2.0,14.0,88,0.00,,,0.00,Wunderground v.1.15,2013-06-07 16:55:00,
2013-06-07 13:00:00,51.3,47.6,29.99,WSW,252,1.0,1.0,87,0.00,,,0.00,Wunderground v.1.15,2013-06-07 17:00:00,
2013-06-07 13:05:00,51.4,47.4,29.98,WSW,247,1.0,2.0,86,0.00,,,0.00,Wunderground v.1.15,2013-06-07 17:05:00,
2013-06-07 13:15:00,51.4,47.4,29.98,WSW,248,1.0,14.0,86,0.00,,,0.00,Wunderground v.1.15,2013-06-07 17:15:00,
2013-06-07 13:20:00,51.6,47.5,29.98,West,263,1.0,14.0,86,0.00,,,0.00,Wunderground v.1.15,2013-06-07 17:20:00,
2013-06-07 13:30:00,51.9,47.8,29.97,WSW,250,3.0,3.0,86,0.00,,,0.00,Wunderground v.1.15,2013-06-07 17:30:00,
2013-06-07 13:35:00,52.2,48.4,29.97,WSW,254,3.0,14.0,87,0.00,,,0.00,Wunderground v.1.15,2013-06-07 17:35:00,
2013-06-07 13:45:00,52.3,48.2,29.97,WSW,247,2.0,14.0,86,0.00,,,0.00,Wunderground v.1.15,2013-06-07 17:45:00,
2013-06-07 13:50:00,51.7,47.0,29.97,West,263,2.0,14.0,84,0.00,,,0.00,Wunderground v.1.15,2013-06-07 17:50:00,
2013-06-07 14:00:00,51.2,47.8,29.97,WSW,248,2.0,14.0,88,0.00,,,0.00,Wunderground v.1.15,2013-06-07 18:00:00,
2013-06-07 14:05:00,51.1,47.1,29.96,West,260,3.0,14.0,86,0.00,,,0.00,Wunderground v.1.15,2013-06-07 18:05:00,
2013-06-07 14:10:00,51.0,47.0,29.96,West,269,3.0,14.0,86,0.00,,,0.00,Wunderground v.1.15,2013-06-07 18:10:00,
2013-06-07 14:20:00,51.2,46.8,29.96,West,274,4.0,14.0,85,0.00,,,0.00,Wunderground v.1.15,2013-06-07 18:20:00,
2013-06-07 14:30:00,51.5,47.1,29.96,West,281,5.0,14.0,85,0.00,,,0.00,Wunderground v.1.15,2013-06-07 18:30:00,
2013-06-07 14:35:00,51.6,46.9,29.95,West,277,5.0,14.0,84,0.00,,,0.00,Wunderground v.1.15,2013-06-07 18:35:00,
2013-06-07 14:40:00,51.6,46.6,29.96,WNW,284,5.0,5.0,83,0.00,,,0.00,Wunderground v.1.15,2013-06-07 18:40:00,
2013-06-07 14:50:00,52.0,47.0,29.95,West,269,3.0,14.0,83,0.00,,,0.00,Wunderground v.1.15,2013-06-07 18:50:00,
2013-06-07 15:00:00,51.0,46.3,29.95,West,264,5.0,14.0,84,0.00,,,0.00,Wunderground v.1.15,2013-06-07 19:00:00,
2013-06-07 15:05:00,51.3,46.9,29.95,West,277,5.0,14.0,85,0.00,,,0.00,Wunderground v.1.15,2013-06-07 19:05:00,
2013-06-07 15:15:00,52.2,47.5,29.95,WNW,283,4.0,14.0,84,0.00,,,0.00,Wunderground v.1.15,2013-06-07 19:15:00,
2013-06-07 15:25:00,51.9,46.9,29.95,West,269,5.0,14.0,83,0.00,,,0.00,Wunderground v.1.15,2013-06-07 19:25:00,
2013-06-07 15:35:00,51.7,47.3,29.95,WNW,289,4.0,14.0,85,0.00,,,0.00,Wunderground v.1.15,2013-06-07 19:35:00,
2013-06-07 15:40:00,51.8,47.4,29.95,West,267,4.0,4.0,85,0.00,,,0.00,Wunderground v.1.15,2013-06-07 19:40:00,
2013-06-07 15:50:00,53.5,48.8,29.95,West,277,3.0,14.0,84,0.00,,,0.00,Wunderground v.1.15,2013-06-07 19:50:00,
2013-06-07 15:55:00,53.5,48.8,29.95,WNW,291,3.0,14.0,84,0.00,,,0.00,Wunderground v.1.15,2013-06-07 19:55:00,
2013-06-07 16:05:00,52.8,48.1,29.94,WNW,283,5.0,14.0,84,0.00,,,0.00,Wunderground v.1.15,2013-06-07 20:05:00,
2013-06-07 16:10:00,52.8,48.1,29.94,West,270,5.0,14.0,84,0.00,,,0.00,Wunderground v.1.15,2013-06-07 20:10:00,
2013-06-07 16:20:00,52.4,47.7,29.94,West,277,5.0,5.0,84,0.00,,,0.00,Wunderground v.1.15,2013-06-07 20:20:00,
2013-06-07 16:25:00,52.9,47.9,29.94,WNW,283,5.0,14.0,83,0.00,,,0.00,Wunderground v.1.15,2013-06-07 20:25:00,
2013-06-07 16:30:00,53.1,48.1,29.93,West,281,4.0,14.0,83,0.00,,,0.00,Wunderground v.1.15,2013-06-07 20:30:00,
2013-06-07 16:40:00,53.1,47.7,29.93,WNW,284,5.0,5.0,82,0.00,,,0.00,Wunderground v.1.15,2013-06-07 20:40:00,
2013-06-07 16:45:00,53.2,47.8,29.93,West,274,5.0,14.0,82,0.00,,,0.00,Wunderground v.1.15,2013-06-07 20:45:00,
2013-06-07 16:55:00,53.2,48.2,29.93,WNW,283,5.0,14.0,83,0.00,,,0.00,Wunderground v.1.15,2013-06-07 20:55:00,
2013-06-07 17:00:00,53.5,47.8,29.93,WNW,283,5.0,14.0,81,0.00,,,0.00,Wunderground v.1.15,2013-06-07 21:00:00,
2013-06-07 17:05:00,53.7,48.0,29.93,West,276,4.0,14.0,81,0.00,,,0.00,Wunderground v.1.15,2013-06-07 21:05:00,
2013-06-07 17:15:00,53.9,47.9,29.93,WNW,283,5.0,14.0,80,0.00,,,0.00,Wunderground v.1.15,2013-06-07 21:15:00,
2013-06-07 17:20:00,54.0,48.6,29.93,West,281,4.0,14.0,82,0.00,,,0.00,Wunderground v.1.15,2013-06-07 21:20:00,
2013-06-07 17:25:00,54.3,48.6,29.93,West,281,4.0,14.0,81,0.00,,,0.00,Wunderground v.1.15,2013-06-07 21:25:00,
2013-06-07 17:30:00,53.9,48.2,29.93,West,279,4.0,14.0,81,0.00,,,0.00,Wunderground v.1.15,2013-06-07 21:30:00,
2013-06-07 17:40:00,53.9,48.5,29.93,WNW,289,4.0,14.0,82,0.00,,,0.00,Wunderground v.1.15,2013-06-07 21:40:00,
2013-06-07 17:50:00,54.0,48.0,29.93,West,279,5.0,14.0,80,0.00,,,0.00,Wunderground v.1.15,2013-06-07 21:50:00,
2013-06-07 17:55:00,54.1,48.1,29.93,West,281,5.0,14.0,80,0.00,,,0.00,Wunderground v.1.15,2013-06-07 21:55:00,
2013-06-07 18:00:00,54.6,48.6,29.92,WNW,292,5.0,5.0,80,0.00,,,0.00,Wunderground v.1.15,2013-06-07 22:00:00,
2013-06-07 18:05:00,55.5,48.8,29.92,WNW,283,3.0,14.0,78,0.00,,,0.00,Wunderground v.1.15,2013-06-07 22:05:00,
2013-06-07 18:10:00,56.6,49.1,29.92,WNW,290,3.0,3.0,76,0.00,,,0.00,Wunderground v.1.15,2013-06-07 22:10:00,
2013-06-07 18:15:00,57.5,48.2,29.92,WNW,286,3.0,14.0,71,0.00,,,0.00,Wunderground v.1.15,2013-06-07 22:15:00,
2013-06-07 18:25:00,57.5,48.2,29.92,WNW,286,3.0,14.0,71,0.00,,,0.00,Wunderground v.1.15,2013-06-07 22:25:00,
2013-06-07 18:30:00,57.4,48.1,29.92,WNW,284,2.0,14.0,71,0.00,,,0.00,Wunderground v.1.15,2013-06-07 22:30:00,
2013-06-07 18:35:00,57.7,48.4,29.92,WNW,284,3.0,14.0,71,0.00,,,0.00,Wunderground v.1.15,2013-06-07 22:35:00,
2013-06-07 18:40:00,58.0,48.3,29.92,West,280,4.0,14.0,70,0.00,,,0.00,Wunderground v.1.15,2013-06-07 22:40:00,
2013-06-07 18:45:00,57.7,48.0,29.92,West,281,4.0,14.0,70,0.00,,,0.00,Wunderground v.1.15,2013-06-07 22:45:00,
2013-06-07 19:00:00,59.0,48.4,29.92,WNW,288,4.0,4.0,68,0.00,,,0.00,Wunderground v.1.15,2013-06-07 23:00:00,
2013-06-07 19:05:00,59.0,48.1,29.92,WNW,291,2.0,14.0,67,0.00,,,0.00,Wunderground v.1.15,2013-06-07 23:05:00,
2013-06-07 19:10:00,59.3,47.9,29.92,WNW,291,2.0,14.0,66,0.00,,,0.00,Wunderground v.1.15,2013-06-07 23:10:00,
2013-06-07 19:20:00,59.0,48.1,29.92,WNW,286,2.0,2.0,67,0.00,,,0.00,Wunderground v.1.15,2013-06-07 23:20:00,
2013-06-07 19:25:00,59.8,48.8,29.92,WNW,286,1.0,14.0,67,0.00,,,0.00,Wunderground v.1.15,2013-06-07 23:25:00,
2013-06-07 19:35:00,59.9,48.1,29.92,WNW,286,1.0,14.0,65,0.00,,,0.00,Wunderground v.1.15,2013-06-07 23:35:00,
2013-06-07 19:40:00,59.3,48.3,29.92,WNW,286,0.0,14.0,67,0.00,,,0.00,Wunderground v.1.15,2013-06-07 23:40:00,
2013-06-07 19:45:00,59.4,48.8,29.92,WNW,286,0.0,14.0,68,0.00,,,0.00,Wunderground v.1.15,2013-06-07 23:45:00,
2013-06-07 19:50:00,59.0,48.4,29.92,WNW,286,0.0,14.0,68,0.00,,,0.00,Wunderground v.1.15,2013-06-07 23:50:00,
2013-06-07 19:55:00,59.0,48.8,29.92,WNW,286,0.0,14.0,69,0.00,,,0.00,Wunderground v.1.15,2013-06-07 23:55:00,
2013-06-07 20:05:00,58.3,47.8,29.92,WNW,291,0.0,14.0,68,0.00,,,0.00,Wunderground v.1.15,2013-06-08 00:05:00,
2013-06-07 20:10:00,58.0,48.3,29.92,NW,314,0.0,14.0,70,0.00,,,0.00,Wunderground v.1.15,2013-06-08 00:10:00,
2013-06-07 20:15:00,57.8,48.1,29.92,NW,314,0.0,14.0,70,0.00,,,0.00,Wunderground v.1.15,2013-06-08 00:15:00,
2013-06-07 20:20:00,57.7,48.0,29.92,NW,310,0.0,14.0,70,0.00,,,0.00,Wunderground v.1.15,2013-06-08 00:20:00,
2013-06-07 20:25:00,57.7,48.0,29.93,NW,321,0.0,14.0,70,0.00,,,0.00,Wunderground v.1.15,2013-06-08 00:25:00,
2013-06-07 20:30:00,57.7,48.7,29.93,NW,323,1.0,1.0,72,0.00,,,0.00,Wunderground v.1.15,2013-06-08 00:30:00,
2013-06-07 20:40:00,57.5,48.2,29.93,NW,318,0.0,14.0,71,0.00,,,0.00,Wunderground v.1.15,2013-06-08 00:40:00,
2013-06-07 20:45:00,57.3,48.3,29.93,WNW,302,0.0,14.0,72,0.00,,,0.00,Wunderground v.1.15,2013-06-08 00:45:00,
2013-06-07 20:50:00,56.9,48.3,29.93,WNW,302,0.0,14.0,73,0.00,,,0.00,Wunderground v.1.15,2013-06-08 00:50:00,
2013-06-07 20:55:00,56.6,48.8,29.93,WNW,302,0.0,14.0,75,0.00,,,0.00,Wunderground v.1.15,2013-06-08 00:55:00,
2013-06-07 21:00:00,56.3,48.1,29.93,WNW,302,0.0,14.0,74,0.00,,,0.00,Wunderground v.1.15,2013-06-08 01:00:00,
2013-06-07 21:10:00,56.4,45.6,29.93,NNW,330,0.0,14.0,67,0.00,,,0.00,Wunderground v.1.15,2013-06-08 01:10:00,
2013-06-07 21:15:00,56.8,48.2,29.93,NNW,330,0.0,14.0,73,0.00,,,0.00,Wunderground v.1.15,2013-06-08 01:15:00,
2013-06-07 21:25:00,56.6,45.8,29.93,NNE,14,0.0,14.0,67,0.00,,,0.00,Wunderground v.1.15,2013-06-08 01:25:00,
2013-06-07 21:30:00,56.5,45.7,29.93,NNE,14,0.0,14.0,67,0.00,,,0.00,Wunderground v.1.15,2013-06-08 01:30:00,
2013-06-07 21:35:00,56.4,45.2,29.93,NNE,14,0.0,14.0,66,0.00,,,0.00,Wunderground v.1.15,2013-06-08 01:35:00,
2013-06-07 21:45:00,56.2,45.0,29.93,NNE,14,0.0,14.0,66,0.00,,,0.00,Wunderground v.1.15,2013-06-08 01:45:00,
2013-06-07 21:55:00,56.0,45.2,29.93,NE,36,0.0,14.0,67,0.00,,,0.00,Wunderground v.1.15,2013-06-08 01:55:00,
2013-06-07 22:00:00,55.7,44.5,29.94,North,360,0.0,14.0,66,0.00,,,0.00,Wunderground v.1.15,2013-06-08 02:00:00,
2013-06-07 22:05:00,55.7,44.5,29.94,NNE,23,0.0,14.0,66,0.00,,,0.00,Wunderground v.1.15,2013-06-08 02:05:00,
2013-06-07 22:10:00,55.3,44.1,29.94,ENE,60,0.0,14.0,66,0.00,,,0.00,Wunderground v.1.15,2013-06-08 02:10:00,
2013-06-07 22:20:00,54.8,44.0,29.94,ENE,60,0.0,14.0,67,0.00,,,0.00,Wunderground v.1.15,2013-06-08 02:20:00,
2013-06-07 22:25:00,54.5,44.2,29.94,ENE,60,0.0,14.0,68,0.00,,,0.00,Wunderground v.1.15,2013-06-08 02:25:00,
2013-06-07 22:30:00,54.1,44.2,29.95,ENE,60,0.0,14.0,69,0.00,,,0.00,Wunderground v.1.15,2013-06-08 02:30:00,
2013-06-07 22:35:00,53.8,44.6,29.95,ENE,60,0.0,14.0,71,0.00,,,0.00,Wunderground v.1.15,2013-06-08 02:35:00,
2013-06-07 22:40:00,53.4,44.6,29.95,ENE,60,0.0,14.0,72,0.00,,,0.00,Wunderground v.1.15,2013-06-08 02:40:00,
2013-06-07 22:50:00,52.7,43.9,29.95,ENE,60,0.0,14.0,72,0.00,,,0.00,Wunderground v.1.15,2013-06-08 02:50:00,
2013-06-07 22:55:00,52.5,43.7,29.95,ENE,60,0.0,14.0,72,0.00,,,0.00,Wunderground v.1.15,2013-06-08 02:55:00,
2013-06-07 23:00:00,52.4,44.0,29.95,ENE,60,0.0,14.0,73,0.00,,,0.00,Wunderground v.1.15,2013-06-08 03:00:00,
2013-06-07 23:05:00,52.4,44.0,29.95,ENE,60,0.0,14.0,73,0.00,,,0.00,Wunderground v.1.15,2013-06-08 03:05:00,
2013-06-07 23:15:00,52.4,44.0,29.95,ENE,60,0.0,14.0,73,0.00,,,0.00,Wunderground v.1.15,2013-06-08 03:15:00,
2013-06-07 23:20:00,52.5,44.1,29.95,ENE,60,0.0,14.0,73,0.00,,,0.00,Wunderground v.1.15,2013-06-08 03:20:00,
2013-06-07 23:30:00,52.5,44.4,29.95,ENE,60,0.0,14.0,74,0.00,,,0.00,Wunderground v.1.15,2013-06-08 03:30:00,
2013-06-07 23:35:00,52.4,44.4,29.96,ENE,60,0.0,14.0,74,0.00,,,0.00,Wunderground v.1.15,2013-06-08 03:35:00,
2013-06-07 23:40:00,52.4,44.4,29.96,ENE,60,0.0,14.0,74,0.00,,,0.00,Wunderground v.1.15,2013-06-08 03:40:00,
2013-06-07 23:45:00,52.3,43.9,29.96,ENE,60,0.0,14.0,73,0.00,,,0.00,Wunderground v.1.15,2013-06-08 03:45:00,
2013-06-07 23:50:00,52.2,43.8,29.96,ENE,60,0.0,14.0,73,0.00,,,0.00,Wunderground v.1.15,2013-06-08 03:50:00,